sensor_id;sensor_type;location;lat;lon;timestamp;P1;durP1;ratioP1;P2;durP2;ratioP2
64826;SDS011;51265;53.972;12.286;2023-07-31T00:00:56;4.65;;;1.40;;
64826;SDS011;51265;53.972;12.286;2023-07-31T00:03:22;3.95;;;1.45;;
64826;SDS011;51265;53.972;12.286;2023-07-31T00:05:48;6.00;;;1.27;;
64826;SDS011;51265;53.972;12.286;2023-07-31T00:08:14;3.85;;;1.10;;
64826;SDS011;51265;53.972;12.286;2023-07-31T00:10:40;5.00;;;1.33;;
64826;SDS011;51265;53.972;12.286;2023-07-31T00:13:07;4.88;;;1.40;;
64826;SDS011;51265;53.972;12.286;2023-07-31T00:15:33;2.92;;;1.55;;
64826;SDS011;51265;53.972;12.286;2023-07-31T00:18:19;5.43;;;2.38;;
64826;SDS011;51265;53.972;12.286;2023-07-31T00:20:45;4.50;;;1.38;;
64826;SDS011;51265;53.972;12.286;2023-07-31T00:23:11;2.25;;;1.10;;
64826;SDS011;51265;53.972;12.286;2023-07-31T00:25:37;4.22;;;1.40;;
64826;SDS011;51265;53.972;12.286;2023-07-31T00:28:03;4.90;;;1.33;;
64826;SDS011;51265;53.972;12.286;2023-07-31T00:30:30;6.68;;;1.63;;
64826;SDS011;51265;53.972;12.286;2023-07-31T00:32:56;6.38;;;1.30;;
64826;SDS011;51265;53.972;12.286;2023-07-31T00:35:22;5.15;;;1.60;;
64826;SDS011;51265;53.972;12.286;2023-07-31T00:37:48;7.82;;;1.60;;
64826;SDS011;51265;53.972;12.286;2023-07-31T00:40:14;4.35;;;1.27;;
64826;SDS011;51265;53.972;12.286;2023-07-31T00:42:40;4.20;;;1.40;;
64826;SDS011;51265;53.972;12.286;2023-07-31T00:45:08;6.25;;;1.55;;
64826;SDS011;51265;53.972;12.286;2023-07-31T00:47:34;3.20;;;1.60;;
64826;SDS011;51265;53.972;12.286;2023-07-31T00:50:00;7.00;;;1.90;;
64826;SDS011;51265;53.972;12.286;2023-07-31T00:52:26;6.07;;;1.52;;
64826;SDS011;51265;53.972;12.286;2023-07-31T00:54:53;4.72;;;1.58;;
64826;SDS011;51265;53.972;12.286;2023-07-31T00:57:19;8.30;;;2.00;;
64826;SDS011;51265;53.972;12.286;2023-07-31T00:59:45;5.45;;;1.83;;
64826;SDS011;51265;53.972;12.286;2023-07-31T01:02:12;4.25;;;1.60;;
64826;SDS011;51265;53.972;12.286;2023-07-31T01:04:38;2.58;;;1.40;;
64826;SDS011;51265;53.972;12.286;2023-07-31T01:07:09;6.32;;;1.35;;
64826;SDS011;51265;53.972;12.286;2023-07-31T01:09:42;6.40;;;1.67;;
64826;SDS011;51265;53.972;12.286;2023-07-31T01:12:14;4.65;;;1.55;;
64826;SDS011;51265;53.972;12.286;2023-07-31T01:15:16;3.25;;;1.60;;
64826;SDS011;51265;53.972;12.286;2023-07-31T01:17:38;3.55;;;1.50;;
64826;SDS011;51265;53.972;12.286;2023-07-31T01:20:05;3.25;;;1.50;;
64826;SDS011;51265;53.972;12.286;2023-07-31T01:28:05;8.40;;;1.60;;
64826;SDS011;51265;53.972;12.286;2023-07-31T01:30:37;4.72;;;1.50;;
64826;SDS011;51265;53.972;12.286;2023-07-31T01:33:09;4.65;;;1.60;;
64826;SDS011;51265;53.972;12.286;2023-07-31T01:35:35;7.88;;;1.65;;
64826;SDS011;51265;53.972;12.286;2023-07-31T01:38:03;6.45;;;1.60;;
64826;SDS011;51265;53.972;12.286;2023-07-31T01:40:30;4.43;;;1.65;;
64826;SDS011;51265;53.972;12.286;2023-07-31T01:42:56;7.75;;;1.80;;
64826;SDS011;51265;53.972;12.286;2023-07-31T01:45:23;8.57;;;1.80;;
64826;SDS011;51265;53.972;12.286;2023-07-31T01:47:49;5.57;;;1.52;;
64826;SDS011;51265;53.972;12.286;2023-07-31T01:50:16;5.72;;;1.42;;
64826;SDS011;51265;53.972;12.286;2023-07-31T01:52:42;3.45;;;1.73;;
64826;SDS011;51265;53.972;12.286;2023-07-31T01:55:08;4.13;;;1.65;;
64826;SDS011;51265;53.972;12.286;2023-07-31T01:57:36;7.78;;;1.52;;
64826;SDS011;51265;53.972;12.286;2023-07-31T02:00:03;7.32;;;2.33;;
64826;SDS011;51265;53.972;12.286;2023-07-31T02:02:38;5.13;;;1.77;;
64826;SDS011;51265;53.972;12.286;2023-07-31T02:05:04;8.05;;;1.98;;
64826;SDS011;51265;53.972;12.286;2023-07-31T02:07:31;4.25;;;1.73;;
64826;SDS011;51265;53.972;12.286;2023-07-31T02:09:57;5.55;;;1.67;;
64826;SDS011;51265;53.972;12.286;2023-07-31T02:12:23;6.72;;;1.83;;
64826;SDS011;51265;53.972;12.286;2023-07-31T02:15:03;3.80;;;1.77;;
64826;SDS011;51265;53.972;12.286;2023-07-31T02:17:30;4.63;;;1.88;;
64826;SDS011;51265;53.972;12.286;2023-07-31T02:19:56;6.25;;;1.52;;
64826;SDS011;51265;53.972;12.286;2023-07-31T02:22:22;5.70;;;1.98;;
64826;SDS011;51265;53.972;12.286;2023-07-31T02:24:49;4.60;;;1.50;;
64826;SDS011;51265;53.972;12.286;2023-07-31T02:27:15;4.60;;;1.65;;
64826;SDS011;51265;53.972;12.286;2023-07-31T02:29:41;5.97;;;1.77;;
64826;SDS011;51265;53.972;12.286;2023-07-31T02:32:07;8.98;;;1.77;;
64826;SDS011;51265;53.972;12.286;2023-07-31T02:34:35;6.10;;;1.58;;
64826;SDS011;51265;53.972;12.286;2023-07-31T02:37:01;6.75;;;1.80;;
64826;SDS011;51265;53.972;12.286;2023-07-31T02:39:27;5.22;;;1.50;;
64826;SDS011;51265;53.972;12.286;2023-07-31T02:42:08;6.18;;;1.85;;
64826;SDS011;51265;53.972;12.286;2023-07-31T02:44:34;10.10;;;2.10;;
64826;SDS011;51265;53.972;12.286;2023-07-31T02:47:00;5.47;;;1.90;;
64826;SDS011;51265;53.972;12.286;2023-07-31T02:49:26;4.18;;;2.08;;
64826;SDS011;51265;53.972;12.286;2023-07-31T02:51:52;6.70;;;1.90;;
64826;SDS011;51265;53.972;12.286;2023-07-31T02:54:18;6.65;;;1.92;;
64826;SDS011;51265;53.972;12.286;2023-07-31T02:56:47;5.82;;;2.33;;
64826;SDS011;51265;53.972;12.286;2023-07-31T02:59:14;5.75;;;2.00;;
64826;SDS011;51265;53.972;12.286;2023-07-31T03:01:41;7.20;;;2.05;;
64826;SDS011;51265;53.972;12.286;2023-07-31T03:04:07;4.75;;;2.00;;
64826;SDS011;51265;53.972;12.286;2023-07-31T03:06:33;10.13;;;2.60;;
64826;SDS011;51265;53.972;12.286;2023-07-31T03:08:59;7.80;;;2.67;;
64826;SDS011;51265;53.972;12.286;2023-07-31T03:11:25;5.82;;;2.67;;
64826;SDS011;51265;53.972;12.286;2023-07-31T03:13:51;6.43;;;2.67;;
64826;SDS011;51265;53.972;12.286;2023-07-31T03:16:18;7.60;;;2.83;;
64826;SDS011;51265;53.972;12.286;2023-07-31T03:18:44;5.50;;;2.38;;
64826;SDS011;51265;53.972;12.286;2023-07-31T03:21:10;6.57;;;2.38;;
64826;SDS011;51265;53.972;12.286;2023-07-31T03:23:36;7.88;;;2.60;;
64826;SDS011;51265;53.972;12.286;2023-07-31T03:26:05;6.95;;;2.75;;
64826;SDS011;51265;53.972;12.286;2023-07-31T03:28:32;6.80;;;2.30;;
64826;SDS011;51265;53.972;12.286;2023-07-31T03:30:58;8.23;;;2.85;;
64826;SDS011;51265;53.972;12.286;2023-07-31T03:33:25;5.10;;;2.50;;
64826;SDS011;51265;53.972;12.286;2023-07-31T03:35:51;7.45;;;3.00;;
64826;SDS011;51265;53.972;12.286;2023-07-31T03:38:18;6.90;;;2.40;;
64826;SDS011;51265;53.972;12.286;2023-07-31T03:40:44;6.78;;;2.80;;
64826;SDS011;51265;53.972;12.286;2023-07-31T03:43:11;7.05;;;3.05;;
64826;SDS011;51265;53.972;12.286;2023-07-31T03:45:39;9.27;;;2.80;;
64826;SDS011;51265;53.972;12.286;2023-07-31T03:48:05;6.28;;;2.70;;
64826;SDS011;51265;53.972;12.286;2023-07-31T03:50:33;8.52;;;2.80;;
64826;SDS011;51265;53.972;12.286;2023-07-31T03:53:00;11.57;;;2.80;;
64826;SDS011;51265;53.972;12.286;2023-07-31T03:55:26;10.30;;;2.53;;
64826;SDS011;51265;53.972;12.286;2023-07-31T03:57:53;7.95;;;2.97;;
64826;SDS011;51265;53.972;12.286;2023-07-31T04:00:19;5.63;;;2.75;;
64826;SDS011;51265;53.972;12.286;2023-07-31T04:02:45;5.90;;;2.92;;
64826;SDS011;51265;53.972;12.286;2023-07-31T04:05:11;8.65;;;2.42;;
64826;SDS011;51265;53.972;12.286;2023-07-31T04:07:37;11.63;;;2.92;;
64826;SDS011;51265;53.972;12.286;2023-07-31T04:10:03;6.53;;;2.92;;
64826;SDS011;51265;53.972;12.286;2023-07-31T04:12:30;7.60;;;2.60;;
64826;SDS011;51265;53.972;12.286;2023-07-31T04:14:56;8.40;;;2.83;;
64826;SDS011;51265;53.972;12.286;2023-07-31T04:17:23;7.90;;;2.60;;
64826;SDS011;51265;53.972;12.286;2023-07-31T04:19:49;9.07;;;2.75;;
64826;SDS011;51265;53.972;12.286;2023-07-31T04:22:15;7.93;;;2.35;;
64826;SDS011;51265;53.972;12.286;2023-07-31T04:24:41;4.93;;;2.22;;
64826;SDS011;51265;53.972;12.286;2023-07-31T04:27:07;4.15;;;2.42;;
64826;SDS011;51265;53.972;12.286;2023-07-31T04:29:34;7.30;;;2.30;;
64826;SDS011;51265;53.972;12.286;2023-07-31T04:32:00;10.05;;;2.70;;
64826;SDS011;51265;53.972;12.286;2023-07-31T04:34:26;5.35;;;2.63;;
64826;SDS011;51265;53.972;12.286;2023-07-31T04:36:52;8.65;;;2.60;;
64826;SDS011;51265;53.972;12.286;2023-07-31T04:39:18;7.28;;;2.20;;
64826;SDS011;51265;53.972;12.286;2023-07-31T04:41:44;6.82;;;2.40;;
64826;SDS011;51265;53.972;12.286;2023-07-31T04:44:10;6.03;;;2.42;;
64826;SDS011;51265;53.972;12.286;2023-07-31T04:46:37;5.55;;;2.33;;
64826;SDS011;51265;53.972;12.286;2023-07-31T04:49:03;7.32;;;2.95;;
64826;SDS011;51265;53.972;12.286;2023-07-31T04:51:29;5.00;;;2.28;;
64826;SDS011;51265;53.972;12.286;2023-07-31T04:53:56;6.53;;;2.90;;
64826;SDS011;51265;53.972;12.286;2023-07-31T04:56:22;5.18;;;2.20;;
64826;SDS011;51265;53.972;12.286;2023-07-31T04:58:48;6.35;;;2.30;;
64826;SDS011;51265;53.972;12.286;2023-07-31T05:01:14;5.10;;;2.15;;
64826;SDS011;51265;53.972;12.286;2023-07-31T05:03:40;6.88;;;2.47;;
64826;SDS011;51265;53.972;12.286;2023-07-31T05:06:06;11.02;;;2.47;;
64826;SDS011;51265;53.972;12.286;2023-07-31T05:08:33;4.32;;;2.15;;
64826;SDS011;51265;53.972;12.286;2023-07-31T05:10:59;4.43;;;2.33;;
64826;SDS011;51265;53.972;12.286;2023-07-31T05:13:25;8.32;;;2.20;;
64826;SDS011;51265;53.972;12.286;2023-07-31T05:15:51;11.63;;;2.60;;
64826;SDS011;51265;53.972;12.286;2023-07-31T05:21:05;7.90;;;3.90;;
64826;SDS011;51265;53.972;12.286;2023-07-31T05:23:32;6.93;;;2.78;;
64826;SDS011;51265;53.972;12.286;2023-07-31T05:26:05;8.10;;;2.92;;
64826;SDS011;51265;53.972;12.286;2023-07-31T05:28:33;5.63;;;2.33;;
64826;SDS011;51265;53.972;12.286;2023-07-31T05:31:01;4.95;;;1.60;;
64826;SDS011;51265;53.972;12.286;2023-07-31T05:33:27;4.03;;;2.25;;
64826;SDS011;51265;53.972;12.286;2023-07-31T05:35:54;4.95;;;2.17;;
64826;SDS011;51265;53.972;12.286;2023-07-31T05:38:20;5.43;;;2.28;;
64826;SDS011;51265;53.972;12.286;2023-07-31T05:40:46;5.60;;;2.30;;
64826;SDS011;51265;53.972;12.286;2023-07-31T05:43:12;7.63;;;2.08;;
64826;SDS011;51265;53.972;12.286;2023-07-31T05:45:39;8.38;;;2.13;;
64826;SDS011;51265;53.972;12.286;2023-07-31T05:48:06;4.15;;;2.30;;
64826;SDS011;51265;53.972;12.286;2023-07-31T05:50:32;7.18;;;2.67;;
64826;SDS011;51265;53.972;12.286;2023-07-31T05:52:58;3.80;;;2.38;;
64826;SDS011;51265;53.972;12.286;2023-07-31T05:55:24;5.20;;;2.40;;
64826;SDS011;51265;53.972;12.286;2023-07-31T05:57:53;7.88;;;2.42;;
64826;SDS011;51265;53.972;12.286;2023-07-31T06:00:19;6.50;;;2.45;;
64826;SDS011;51265;53.972;12.286;2023-07-31T06:02:47;6.78;;;3.17;;
64826;SDS011;51265;53.972;12.286;2023-07-31T06:05:13;6.82;;;2.65;;
64826;SDS011;51265;53.972;12.286;2023-07-31T06:07:40;7.90;;;2.95;;
64826;SDS011;51265;53.972;12.286;2023-07-31T06:10:06;5.97;;;2.70;;
64826;SDS011;51265;53.972;12.286;2023-07-31T06:12:34;4.55;;;2.53;;
64826;SDS011;51265;53.972;12.286;2023-07-31T06:15:02;8.63;;;3.17;;
64826;SDS011;51265;53.972;12.286;2023-07-31T06:17:29;5.53;;;3.10;;
64826;SDS011;51265;53.972;12.286;2023-07-31T06:19:56;6.10;;;2.97;;
64826;SDS011;51265;53.972;12.286;2023-07-31T06:22:22;6.28;;;2.90;;
64826;SDS011;51265;53.972;12.286;2023-07-31T06:24:48;5.20;;;2.70;;
64826;SDS011;51265;53.972;12.286;2023-07-31T06:27:14;5.38;;;2.60;;
64826;SDS011;51265;53.972;12.286;2023-07-31T06:29:42;6.50;;;2.90;;
64826;SDS011;51265;53.972;12.286;2023-07-31T06:32:08;7.78;;;2.88;;
64826;SDS011;51265;53.972;12.286;2023-07-31T06:34:34;4.80;;;2.70;;
64826;SDS011;51265;53.972;12.286;2023-07-31T06:37:00;7.75;;;3.08;;
64826;SDS011;51265;53.972;12.286;2023-07-31T06:39:26;4.45;;;2.75;;
64826;SDS011;51265;53.972;12.286;2023-07-31T06:41:53;6.50;;;3.20;;
64826;SDS011;51265;53.972;12.286;2023-07-31T06:44:20;4.80;;;2.78;;
64826;SDS011;51265;53.972;12.286;2023-07-31T06:46:46;4.78;;;2.92;;
64826;SDS011;51265;53.972;12.286;2023-07-31T06:49:12;5.90;;;2.88;;
64826;SDS011;51265;53.972;12.286;2023-07-31T06:51:41;4.60;;;2.80;;
64826;SDS011;51265;53.972;12.286;2023-07-31T06:54:08;5.57;;;3.00;;
64826;SDS011;51265;53.972;12.286;2023-07-31T06:56:34;7.45;;;2.80;;
64826;SDS011;51265;53.972;12.286;2023-07-31T06:59:00;5.50;;;2.72;;
64826;SDS011;51265;53.972;12.286;2023-07-31T07:01:26;5.00;;;2.50;;
64826;SDS011;51265;53.972;12.286;2023-07-31T07:03:54;3.47;;;2.30;;
64826;SDS011;51265;53.972;12.286;2023-07-31T07:06:21;4.90;;;2.45;;
64826;SDS011;51265;53.972;12.286;2023-07-31T07:08:48;4.20;;;2.28;;
64826;SDS011;51265;53.972;12.286;2023-07-31T07:11:15;3.13;;;2.30;;
64826;SDS011;51265;53.972;12.286;2023-07-31T07:13:41;3.90;;;2.33;;
64826;SDS011;51265;53.972;12.286;2023-07-31T07:16:07;5.15;;;2.67;;
64826;SDS011;51265;53.972;12.286;2023-07-31T07:18:33;3.90;;;2.25;;
64826;SDS011;51265;53.972;12.286;2023-07-31T07:21:00;3.30;;;1.80;;
64826;SDS011;51265;53.972;12.286;2023-07-31T07:23:28;2.75;;;1.80;;
64826;SDS011;51265;53.972;12.286;2023-07-31T07:25:54;4.43;;;1.80;;
64826;SDS011;51265;53.972;12.286;2023-07-31T07:28:21;4.60;;;1.80;;
64826;SDS011;51265;53.972;12.286;2023-07-31T07:30:53;5.20;;;1.80;;
64826;SDS011;51265;53.972;12.286;2023-07-31T07:33:19;3.40;;;1.55;;
64826;SDS011;51265;53.972;12.286;2023-07-31T07:35:46;5.88;;;1.63;;
64826;SDS011;51265;53.972;12.286;2023-07-31T07:38:13;4.70;;;1.38;;
64826;SDS011;51265;53.972;12.286;2023-07-31T07:40:40;2.78;;;1.60;;
64826;SDS011;51265;53.972;12.286;2023-07-31T07:43:07;2.85;;;1.30;;
64826;SDS011;51265;53.972;12.286;2023-07-31T07:45:33;3.80;;;1.77;;
64826;SDS011;51265;53.972;12.286;2023-07-31T07:47:59;3.15;;;1.63;;
64826;SDS011;51265;53.972;12.286;2023-07-31T07:50:26;2.10;;;1.38;;
64826;SDS011;51265;53.972;12.286;2023-07-31T07:52:52;1.98;;;1.20;;
64826;SDS011;51265;53.972;12.286;2023-07-31T07:55:18;3.63;;;1.30;;
64826;SDS011;51265;53.972;12.286;2023-07-31T07:57:44;2.80;;;1.15;;
64826;SDS011;51265;53.972;12.286;2023-07-31T08:00:11;6.32;;;1.17;;
64826;SDS011;51265;53.972;12.286;2023-07-31T08:02:42;2.45;;;1.30;;
64826;SDS011;51265;53.972;12.286;2023-07-31T08:05:09;3.92;;;1.15;;
64826;SDS011;51265;53.972;12.286;2023-07-31T08:07:35;2.63;;;1.10;;
64826;SDS011;51265;53.972;12.286;2023-07-31T08:10:01;5.43;;;1.30;;
64826;SDS011;51265;53.972;12.286;2023-07-31T08:12:27;2.95;;;1.25;;
64826;SDS011;51265;53.972;12.286;2023-07-31T08:14:54;3.80;;;1.20;;
64826;SDS011;51265;53.972;12.286;2023-07-31T08:17:20;1.67;;;1.10;;
64826;SDS011;51265;53.972;12.286;2023-07-31T08:19:46;1.85;;;0.98;;
64826;SDS011;51265;53.972;12.286;2023-07-31T08:22:12;4.00;;;1.40;;
64826;SDS011;51265;53.972;12.286;2023-07-31T08:24:38;2.72;;;1.10;;
64826;SDS011;51265;53.972;12.286;2023-07-31T08:27:05;2.00;;;1.00;;
64826;SDS011;51265;53.972;12.286;2023-07-31T08:29:32;1.92;;;0.93;;
64826;SDS011;51265;53.972;12.286;2023-07-31T08:31:58;3.92;;;1.15;;
64826;SDS011;51265;53.972;12.286;2023-07-31T08:34:24;2.45;;;0.90;;
64826;SDS011;51265;53.972;12.286;2023-07-31T08:36:50;1.38;;;1.00;;
64826;SDS011;51265;53.972;12.286;2023-07-31T08:39:17;1.90;;;0.98;;
64826;SDS011;51265;53.972;12.286;2023-07-31T08:41:43;1.83;;;0.98;;
64826;SDS011;51265;53.972;12.286;2023-07-31T08:44:10;1.85;;;1.00;;
64826;SDS011;51265;53.972;12.286;2023-07-31T08:46:38;2.47;;;1.00;;
64826;SDS011;51265;53.972;12.286;2023-07-31T08:49:05;1.75;;;1.10;;
64826;SDS011;51265;53.972;12.286;2023-07-31T08:51:33;1.98;;;1.10;;
64826;SDS011;51265;53.972;12.286;2023-07-31T08:54:01;3.88;;;1.17;;
64826;SDS011;51265;53.972;12.286;2023-07-31T08:56:27;1.33;;;0.88;;
64826;SDS011;51265;53.972;12.286;2023-07-31T08:58:54;1.55;;;1.05;;
64826;SDS011;51265;53.972;12.286;2023-07-31T09:01:20;2.78;;;1.08;;
64826;SDS011;51265;53.972;12.286;2023-07-31T09:03:48;2.72;;;1.00;;
64826;SDS011;51265;53.972;12.286;2023-07-31T09:06:17;2.58;;;0.90;;
64826;SDS011;51265;53.972;12.286;2023-07-31T09:08:46;1.52;;;0.82;;
64826;SDS011;51265;53.972;12.286;2023-07-31T09:11:13;1.25;;;0.88;;
64826;SDS011;51265;53.972;12.286;2023-07-31T09:13:39;2.03;;;0.90;;
64826;SDS011;51265;53.972;12.286;2023-07-31T09:16:06;1.25;;;0.73;;
64826;SDS011;51265;53.972;12.286;2023-07-31T09:18:45;1.83;;;0.98;;
64826;SDS011;51265;53.972;12.286;2023-07-31T09:21:19;2.90;;;1.30;;
64826;SDS011;51265;53.972;12.286;2023-07-31T09:23:46;7.95;;;1.50;;
64826;SDS011;51265;53.972;12.286;2023-07-31T09:29:00;2.15;;;1.15;;
64826;SDS011;51265;53.972;12.286;2023-07-31T09:31:33;1.88;;;1.10;;
64826;SDS011;51265;53.972;12.286;2023-07-31T09:34:05;4.55;;;1.30;;
64826;SDS011;51265;53.972;12.286;2023-07-31T09:36:31;3.83;;;1.20;;
64826;SDS011;51265;53.972;12.286;2023-07-31T09:39:04;1.95;;;1.27;;
64826;SDS011;51265;53.972;12.286;2023-07-31T09:41:30;1.40;;;1.00;;
64826;SDS011;51265;53.972;12.286;2023-07-31T09:43:57;1.27;;;0.90;;
64826;SDS011;51265;53.972;12.286;2023-07-31T09:46:23;1.90;;;1.15;;
64826;SDS011;51265;53.972;12.286;2023-07-31T09:48:52;1.98;;;1.10;;
64826;SDS011;51265;53.972;12.286;2023-07-31T09:51:25;1.70;;;1.10;;
64826;SDS011;51265;53.972;12.286;2023-07-31T09:53:52;2.22;;;0.93;;
64826;SDS011;51265;53.972;12.286;2023-07-31T09:56:18;1.50;;;1.05;;
64826;SDS011;51265;53.972;12.286;2023-07-31T09:58:47;2.08;;;0.90;;
64826;SDS011;51265;53.972;12.286;2023-07-31T10:01:13;1.38;;;0.90;;
64826;SDS011;51265;53.972;12.286;2023-07-31T10:03:40;1.30;;;0.90;;
64826;SDS011;51265;53.972;12.286;2023-07-31T10:06:08;3.70;;;1.00;;
64826;SDS011;51265;53.972;12.286;2023-07-31T10:08:36;2.70;;;1.02;;
64826;SDS011;51265;53.972;12.286;2023-07-31T10:11:03;3.20;;;1.10;;
64826;SDS011;51265;53.972;12.286;2023-07-31T10:13:30;1.33;;;0.73;;
64826;SDS011;51265;53.972;12.286;2023-07-31T10:15:58;1.73;;;0.73;;
64826;SDS011;51265;53.972;12.286;2023-07-31T10:18:27;1.60;;;0.90;;
64826;SDS011;51265;53.972;12.286;2023-07-31T10:20:54;1.20;;;0.70;;
64826;SDS011;51265;53.972;12.286;2023-07-31T10:23:21;1.55;;;0.80;;
64826;SDS011;51265;53.972;12.286;2023-07-31T10:25:49;1.42;;;0.70;;
64826;SDS011;51265;53.972;12.286;2023-07-31T10:28:15;1.67;;;0.77;;
64826;SDS011;51265;53.972;12.286;2023-07-31T10:30:42;1.77;;;0.80;;
64826;SDS011;51265;53.972;12.286;2023-07-31T10:33:08;2.03;;;0.80;;
64826;SDS011;51265;53.972;12.286;2023-07-31T10:35:35;1.05;;;0.80;;
64826;SDS011;51265;53.972;12.286;2023-07-31T10:38:10;2.17;;;0.70;;
64826;SDS011;51265;53.972;12.286;2023-07-31T10:40:38;1.30;;;0.90;;
64826;SDS011;51265;53.972;12.286;2023-07-31T10:43:05;5.13;;;2.30;;
64826;SDS011;51265;53.972;12.286;2023-07-31T10:45:35;2.33;;;1.00;;
64826;SDS011;51265;53.972;12.286;2023-07-31T10:48:14;1.35;;;0.80;;
64826;SDS011;51265;53.972;12.286;2023-07-31T10:50:51;1.60;;;0.80;;
64826;SDS011;51265;53.972;12.286;2023-07-31T10:55:59;2.90;;;0.60;;
64826;SDS011;51265;53.972;12.286;2023-07-31T10:58:27;1.90;;;0.80;;
64826;SDS011;51265;53.972;12.286;2023-07-31T11:01:07;1.58;;;0.70;;
64826;SDS011;51265;53.972;12.286;2023-07-31T11:03:47;2.97;;;0.85;;
64826;SDS011;51265;53.972;12.286;2023-07-31T11:06:16;1.60;;;0.70;;
64826;SDS011;51265;53.972;12.286;2023-07-31T11:08:43;0.90;;;0.60;;
64826;SDS011;51265;53.972;12.286;2023-07-31T11:11:11;2.10;;;0.60;;
64826;SDS011;51265;53.972;12.286;2023-07-31T11:13:40;0.95;;;0.55;;
64826;SDS011;51265;53.972;12.286;2023-07-31T11:16:08;1.13;;;0.60;;
64826;SDS011;51265;53.972;12.286;2023-07-31T11:18:35;1.50;;;0.68;;
64826;SDS011;51265;53.972;12.286;2023-07-31T11:21:04;2.13;;;0.90;;
64826;SDS011;51265;53.972;12.286;2023-07-31T11:23:30;3.45;;;1.10;;
64826;SDS011;51265;53.972;12.286;2023-07-31T11:25:59;2.00;;;0.82;;
64826;SDS011;51265;53.972;12.286;2023-07-31T11:28:26;4.03;;;1.10;;
64826;SDS011;51265;53.972;12.286;2023-07-31T11:30:52;2.53;;;1.00;;
64826;SDS011;51265;53.972;12.286;2023-07-31T11:33:21;1.52;;;0.90;;
64826;SDS011;51265;53.972;12.286;2023-07-31T11:35:48;2.50;;;1.20;;
64826;SDS011;51265;53.972;12.286;2023-07-31T11:38:21;1.50;;;1.10;;
64826;SDS011;51265;53.972;12.286;2023-07-31T11:40:52;2.28;;;1.10;;
64826;SDS011;51265;53.972;12.286;2023-07-31T11:43:23;2.03;;;1.10;;
64826;SDS011;51265;53.972;12.286;2023-07-31T11:45:57;1.77;;;1.30;;
64826;SDS011;51265;53.972;12.286;2023-07-31T11:50:58;1.45;;;1.05;;
64826;SDS011;51265;53.972;12.286;2023-07-31T11:56:17;1.95;;;0.90;;
64826;SDS011;51265;53.972;12.286;2023-07-31T11:58:48;1.95;;;0.65;;
64826;SDS011;51265;53.972;12.286;2023-07-31T12:01:18;1.53;;;0.80;;
64826;SDS011;51265;53.972;12.286;2023-07-31T12:03:46;3.30;;;0.98;;
64826;SDS011;51265;53.972;12.286;2023-07-31T12:06:13;3.72;;;1.17;;
64826;SDS011;51265;53.972;12.286;2023-07-31T12:08:39;4.45;;;1.00;;
64826;SDS011;51265;53.972;12.286;2023-07-31T12:11:07;5.38;;;0.98;;
64826;SDS011;51265;53.972;12.286;2023-07-31T12:13:38;6.65;;;1.15;;
64826;SDS011;51265;53.972;12.286;2023-07-31T12:16:04;6.30;;;1.00;;
64826;SDS011;51265;53.972;12.286;2023-07-31T12:18:34;5.15;;;0.88;;
64826;SDS011;51265;53.972;12.286;2023-07-31T12:21:02;2.00;;;0.50;;
64826;SDS011;51265;53.972;12.286;2023-07-31T12:23:31;1.83;;;0.50;;
64826;SDS011;51265;53.972;12.286;2023-07-31T12:28:42;1.92;;;0.65;;
64826;SDS011;51265;53.972;12.286;2023-07-31T12:31:13;3.22;;;0.70;;
64826;SDS011;51265;53.972;12.286;2023-07-31T12:33:44;1.95;;;0.75;;
64826;SDS011;51265;53.972;12.286;2023-07-31T12:36:12;5.05;;;0.73;;
64826;SDS011;51265;53.972;12.286;2023-07-31T12:38:43;2.67;;;0.65;;
64826;SDS011;51265;53.972;12.286;2023-07-31T12:41:10;1.27;;;0.70;;
64826;SDS011;51265;53.972;12.286;2023-07-31T12:43:39;14.85;;;11.13;;
64826;SDS011;51265;53.972;12.286;2023-07-31T12:46:06;9.43;;;6.13;;
64826;SDS011;51265;53.972;12.286;2023-07-31T12:48:34;2.10;;;1.23;;
64826;SDS011;51265;53.972;12.286;2023-07-31T12:51:00;1.20;;;0.40;;
64826;SDS011;51265;53.972;12.286;2023-07-31T12:53:27;1.77;;;0.40;;
64826;SDS011;51265;53.972;12.286;2023-07-31T12:55:54;1.20;;;0.47;;
64826;SDS011;51265;53.972;12.286;2023-07-31T12:58:20;2.55;;;0.70;;
64826;SDS011;51265;53.972;12.286;2023-07-31T13:00:47;0.80;;;0.40;;
64826;SDS011;51265;53.972;12.286;2023-07-31T13:03:13;1.17;;;0.30;;
64826;SDS011;51265;53.972;12.286;2023-07-31T13:05:39;3.38;;;0.40;;
64826;SDS011;51265;53.972;12.286;2023-07-31T13:08:05;2.95;;;0.45;;
64826;SDS011;51265;53.972;12.286;2023-07-31T13:10:31;4.07;;;0.50;;
64826;SDS011;51265;53.972;12.286;2023-07-31T13:12:58;4.50;;;0.40;;
64826;SDS011;51265;53.972;12.286;2023-07-31T13:15:24;1.02;;;0.50;;
64826;SDS011;51265;53.972;12.286;2023-07-31T13:17:50;1.05;;;0.28;;
64826;SDS011;51265;53.972;12.286;2023-07-31T13:20:16;0.52;;;0.25;;
64826;SDS011;51265;53.972;12.286;2023-07-31T13:22:43;0.47;;;0.20;;
64826;SDS011;51265;53.972;12.286;2023-07-31T13:25:09;1.90;;;0.20;;
64826;SDS011;51265;53.972;12.286;2023-07-31T13:27:35;0.90;;;0.25;;
64826;SDS011;51265;53.972;12.286;2023-07-31T13:30:01;1.30;;;0.30;;
64826;SDS011;51265;53.972;12.286;2023-07-31T13:32:29;2.00;;;0.50;;
64826;SDS011;51265;53.972;12.286;2023-07-31T13:34:55;0.75;;;0.30;;
64826;SDS011;51265;53.972;12.286;2023-07-31T13:37:21;0.65;;;0.30;;
64826;SDS011;51265;53.972;12.286;2023-07-31T13:39:47;0.43;;;0.30;;
64826;SDS011;51265;53.972;12.286;2023-07-31T13:42:14;2.72;;;0.50;;
64826;SDS011;51265;53.972;12.286;2023-07-31T13:44:40;1.13;;;0.38;;
64826;SDS011;51265;53.972;12.286;2023-07-31T13:47:14;1.25;;;0.30;;
64826;SDS011;51265;53.972;12.286;2023-07-31T13:49:40;0.55;;;0.40;;
64826;SDS011;51265;53.972;12.286;2023-07-31T13:52:07;1.88;;;0.50;;
64826;SDS011;51265;53.972;12.286;2023-07-31T13:54:33;0.88;;;0.45;;
64826;SDS011;51265;53.972;12.286;2023-07-31T13:56:59;4.80;;;0.82;;
64826;SDS011;51265;53.972;12.286;2023-07-31T13:59:26;0.95;;;0.60;;
64826;SDS011;51265;53.972;12.286;2023-07-31T14:01:52;2.05;;;0.50;;
64826;SDS011;51265;53.972;12.286;2023-07-31T14:04:18;2.25;;;1.00;;
64826;SDS011;51265;53.972;12.286;2023-07-31T14:06:45;2.80;;;1.02;;
64826;SDS011;51265;53.972;12.286;2023-07-31T14:09:11;2.72;;;0.88;;
64826;SDS011;51265;53.972;12.286;2023-07-31T14:11:37;2.63;;;1.02;;
64826;SDS011;51265;53.972;12.286;2023-07-31T14:14:03;2.85;;;0.90;;
64826;SDS011;51265;53.972;12.286;2023-07-31T14:16:30;3.60;;;1.20;;
64826;SDS011;51265;53.972;12.286;2023-07-31T14:18:56;1.98;;;0.95;;
64826;SDS011;51265;53.972;12.286;2023-07-31T14:21:25;3.30;;;1.10;;
64826;SDS011;51265;53.972;12.286;2023-07-31T14:23:52;9.23;;;1.25;;
64826;SDS011;51265;53.972;12.286;2023-07-31T14:26:19;3.22;;;1.80;;
64826;SDS011;51265;53.972;12.286;2023-07-31T14:28:45;3.53;;;1.45;;
64826;SDS011;51265;53.972;12.286;2023-07-31T14:31:12;2.55;;;1.10;;
64826;SDS011;51265;53.972;12.286;2023-07-31T14:33:38;2.47;;;1.27;;
64826;SDS011;51265;53.972;12.286;2023-07-31T14:36:04;2.65;;;0.95;;
64826;SDS011;51265;53.972;12.286;2023-07-31T14:38:31;1.40;;;0.90;;
64826;SDS011;51265;53.972;12.286;2023-07-31T14:40:57;2.28;;;1.40;;
64826;SDS011;51265;53.972;12.286;2023-07-31T14:43:23;4.60;;;1.70;;
64826;SDS011;51265;53.972;12.286;2023-07-31T14:45:49;3.20;;;1.08;;
64826;SDS011;51265;53.972;12.286;2023-07-31T14:48:16;1.92;;;1.05;;
64826;SDS011;51265;53.972;12.286;2023-07-31T14:50:42;2.97;;;0.95;;
64826;SDS011;51265;53.972;12.286;2023-07-31T14:53:08;2.83;;;1.40;;
64826;SDS011;51265;53.972;12.286;2023-07-31T14:55:34;2.55;;;1.08;;